createdAt,value
2024-03-26T00:02:06.929Z,2.94
2024-03-26T00:04:36.331Z,2.91
2024-03-26T00:07:04.843Z,2.88
2024-03-26T00:09:33.597Z,2.85
2024-03-26T00:12:02.492Z,2.80
2024-03-26T00:14:31.172Z,2.73
2024-03-26T00:16:59.857Z,2.66
2024-03-26T00:19:29.054Z,2.63
2024-03-26T00:21:57.841Z,2.63
2024-03-26T00:24:26.424Z,2.61
2024-03-26T00:26:55.107Z,2.58
2024-03-26T00:29:23.691Z,2.48
2024-03-26T00:31:52.275Z,2.41
2024-03-26T00:34:20.956Z,2.39
2024-03-26T00:36:49.651Z,2.38
2024-03-26T00:39:18.331Z,2.35
2024-03-26T00:41:46.914Z,2.27
2024-03-26T00:44:15.597Z,2.19
2024-03-26T00:46:44.284Z,2.17
2024-03-26T00:49:13.069Z,2.14
2024-03-26T00:51:45.644Z,2.12
2024-03-26T00:54:16.891Z,2.10
2024-03-26T00:56:45.716Z,2.08
2024-03-26T00:59:14.464Z,2.08
2024-03-26T01:01:43.262Z,2.10
2024-03-26T01:04:11.935Z,2.12
2024-03-26T01:06:41.754Z,2.13
2024-03-26T01:09:10.232Z,2.13
2024-03-26T01:11:38.918Z,2.10
2024-03-26T01:14:07.501Z,2.05
2024-03-26T01:16:36.289Z,2.03
2024-03-26T01:19:05.091Z,1.97
2024-03-26T01:21:33.762Z,1.84
2024-03-26T01:24:02.447Z,1.76
2024-03-26T01:26:31.101Z,1.74
2024-03-26T01:28:59.836Z,1.73
2024-03-26T01:31:28.610Z,1.66
2024-03-26T01:33:57.530Z,1.53
2024-03-26T01:36:26.184Z,1.43
2024-03-26T01:38:54.802Z,1.38
2024-03-26T01:41:23.446Z,1.38
2024-03-26T01:43:52.128Z,1.41
2024-03-26T01:46:20.622Z,1.45
2024-03-26T01:48:55.580Z,1.47
2024-03-26T01:51:39.075Z,1.47
2024-03-26T01:54:07.803Z,1.47
2024-03-26T01:56:36.753Z,1.50
2024-03-26T01:59:05.785Z,1.59
2024-03-26T02:01:48.356Z,1.67
2024-03-26T02:04:17.147Z,1.70
2024-03-26T02:06:45.851Z,1.73
2024-03-26T02:09:14.614Z,1.77
2024-03-26T02:11:43.304Z,1.80
2024-03-26T02:14:12.096Z,1.82
2024-03-26T02:16:41.283Z,1.81
2024-03-26T02:19:09.977Z,1.80
2024-03-26T02:21:38.664Z,1.81
2024-03-26T02:24:07.449Z,1.80
2024-03-26T02:26:36.144Z,1.78
2024-03-26T02:29:04.751Z,1.77
2024-03-26T02:31:33.497Z,1.73
2024-03-26T02:34:02.291Z,1.69
2024-03-26T02:36:30.870Z,1.70
2024-03-26T02:38:59.658Z,1.71
2024-03-26T02:41:28.342Z,1.72
2024-03-26T02:43:57.484Z,1.73
2024-03-26T02:46:25.956Z,1.69
2024-03-26T02:48:54.499Z,1.60
2024-03-26T02:51:23.183Z,1.47
2024-03-26T02:53:51.869Z,1.38
2024-03-26T02:56:20.655Z,1.31
2024-03-26T02:58:49.238Z,1.25
2024-03-26T03:01:18.843Z,1.18
2024-03-26T03:03:47.437Z,1.10
2024-03-26T03:06:16.122Z,1.03
2024-03-26T03:08:44.813Z,0.92
2024-03-26T03:11:13.690Z,0.85
2024-03-26T03:13:42.378Z,0.85
2024-03-26T03:16:11.060Z,0.86
2024-03-26T03:18:39.752Z,0.84
2024-03-26T03:21:08.434Z,0.78
2024-03-26T03:23:37.110Z,0.75
2024-03-26T03:26:05.902Z,0.77
2024-03-26T03:28:34.591Z,0.78
2024-03-26T03:31:03.211Z,0.72
2024-03-26T03:33:31.807Z,0.68
2024-03-26T03:36:00.954Z,0.64
2024-03-26T03:38:29.538Z,0.58
2024-03-26T03:40:58.118Z,0.53
2024-03-26T03:43:26.908Z,0.49
2024-03-26T03:45:55.581Z,0.45
2024-03-26T03:48:24.580Z,0.44
2024-03-26T03:50:53.163Z,0.44
2024-03-26T03:53:21.949Z,0.45
2024-03-26T03:55:50.777Z,0.52
2024-03-26T03:58:24.912Z,0.58
2024-03-26T04:00:59.465Z,0.64
2024-03-26T04:03:28.052Z,0.67
2024-03-26T04:05:56.572Z,0.68
2024-03-26T04:08:25.028Z,0.64
2024-03-26T04:10:53.446Z,0.59
2024-03-26T04:13:22.216Z,0.51
2024-03-26T04:15:50.671Z,0.44
2024-03-26T04:18:19.263Z,0.39
2024-03-26T04:20:47.721Z,0.40
2024-03-26T04:23:16.417Z,0.46
2024-03-26T04:25:55.786Z,0.53
2024-03-26T04:28:27.446Z,0.53
2024-03-26T04:30:56.189Z,0.48
2024-03-26T04:33:25.386Z,0.38
2024-03-26T04:35:53.966Z,0.29
2024-03-26T04:38:22.960Z,0.24
2024-03-26T04:40:51.857Z,0.24
2024-03-26T04:43:20.330Z,0.27
2024-03-26T04:45:51.808Z,0.24
2024-03-26T04:48:21.997Z,0.20
2024-03-26T04:50:50.725Z,0.14
2024-03-26T04:53:19.573Z,0.02
2024-03-26T04:55:48.463Z,-0.07
2024-03-26T04:58:17.266Z,-0.11
2024-03-26T05:00:51.480Z,-0.13
2024-03-26T05:03:20.050Z,-0.10
2024-03-26T05:05:49.267Z,-0.03
2024-03-26T05:08:18.032Z,0.07
2024-03-26T05:10:47.231Z,0.18
2024-03-26T05:13:15.920Z,0.29
2024-03-26T05:15:44.599Z,0.41
2024-03-26T05:18:13.190Z,0.51
2024-03-26T05:20:41.913Z,0.62
2024-03-26T05:23:10.347Z,0.71
2024-03-26T05:25:38.738Z,0.80
2024-03-26T05:28:07.206Z,0.87
2024-03-26T05:30:35.691Z,0.93
2024-03-26T05:33:04.391Z,1.00
2024-03-26T05:35:32.928Z,1.06
2024-03-26T05:38:01.606Z,1.12
2024-03-26T05:40:30.117Z,1.18
2024-03-26T05:42:58.605Z,1.26
2024-03-26T05:45:27.903Z,1.32
2024-03-26T05:47:56.486Z,1.37
2024-03-26T05:50:25.131Z,1.44
2024-03-26T05:52:53.548Z,1.51
2024-03-26T05:55:22.039Z,1.60
2024-03-26T05:57:50.442Z,1.69
2024-03-26T06:00:19.328Z,1.75
2024-03-26T06:02:48.776Z,1.82
2024-03-26T06:05:17.661Z,1.95
2024-03-26T06:07:46.403Z,2.10
2024-03-26T06:10:14.855Z,2.24
2024-03-26T06:12:43.308Z,2.36
2024-03-26T06:15:13.695Z,2.48
2024-03-26T06:17:42.723Z,2.61
2024-03-26T06:20:11.868Z,2.74
2024-03-26T06:22:40.435Z,2.92
2024-03-26T06:25:09.071Z,3.12
2024-03-26T06:27:37.612Z,3.32
2024-03-26T06:30:07.180Z,3.45
2024-03-26T06:32:35.723Z,3.58
2024-03-26T06:35:04.583Z,3.78
2024-03-26T06:37:33.575Z,4.06
2024-03-26T06:40:02.215Z,4.43
2024-03-26T06:42:30.807Z,4.81
2024-03-26T06:44:59.294Z,5.32
2024-03-26T06:47:27.917Z,5.84
2024-03-26T06:49:56.683Z,6.28
2024-03-26T06:52:25.289Z,6.76
2024-03-26T06:54:53.724Z,7.23
2024-03-26T06:57:22.338Z,7.69
2024-03-26T06:59:50.920Z,8.04
2024-03-26T07:02:19.406Z,8.35
2024-03-26T07:04:48.045Z,8.63
2024-03-26T07:07:16.633Z,8.95
2024-03-26T07:09:45.317Z,9.14
2024-03-26T07:12:13.827Z,9.17
2024-03-26T07:14:43.217Z,9.10
2024-03-26T07:17:11.689Z,9.21
2024-03-26T07:19:40.254Z,9.46
2024-03-26T07:22:09.436Z,9.78
2024-03-26T07:24:38.271Z,10.11
2024-03-26T07:27:06.801Z,10.33
2024-03-26T07:29:35.703Z,10.61
2024-03-26T07:32:05.051Z,10.73
2024-03-26T07:34:37.376Z,10.98
2024-03-26T07:37:06.512Z,11.31
2024-03-26T07:39:36.641Z,11.50
2024-03-26T07:42:05.339Z,11.61
2024-03-26T07:44:34.210Z,11.67
2024-03-26T07:47:03.716Z,11.64
2024-03-26T07:49:32.298Z,11.69
2024-03-26T07:52:00.878Z,12.00
2024-03-26T07:54:32.016Z,12.28
2024-03-26T07:57:00.821Z,12.43
2024-03-26T07:59:30.052Z,12.76
2024-03-26T08:01:58.689Z,13.12
2024-03-26T08:04:27.578Z,13.45
2024-03-26T08:06:56.267Z,13.96
2024-03-26T08:09:25.049Z,14.07
2024-03-26T08:11:53.701Z,13.82
2024-03-26T08:14:22.767Z,13.63
2024-03-26T08:16:54.332Z,13.74
2024-03-26T08:19:23.067Z,14.02
2024-03-26T08:21:51.750Z,14.10
2024-03-26T08:24:20.383Z,13.96
2024-03-26T08:26:49.132Z,13.97
2024-03-26T08:29:17.810Z,13.96
2024-03-26T08:31:46.404Z,14.13
2024-03-26T08:34:16.519Z,14.38
2024-03-26T08:36:46.116Z,14.55
2024-03-26T08:39:15.215Z,14.67
2024-03-26T08:41:43.900Z,14.90
2024-03-26T08:44:12.579Z,14.86
2024-03-26T08:46:41.263Z,14.60
2024-03-26T08:49:10.053Z,14.36
2024-03-26T08:51:38.868Z,14.51
2024-03-26T08:54:08.855Z,14.71
2024-03-26T08:56:37.381Z,14.85
2024-03-26T08:59:06.537Z,14.89
2024-03-26T09:01:35.131Z,14.77
2024-03-26T09:04:04.110Z,14.75
2024-03-26T09:06:32.619Z,14.86
2024-03-26T09:09:01.310Z,15.09
2024-03-26T09:11:29.857Z,15.10
2024-03-26T09:13:58.690Z,14.87
2024-03-26T09:16:28.566Z,14.81
2024-03-26T09:19:01.069Z,14.92
2024-03-26T09:21:30.369Z,14.87
2024-03-26T09:23:58.825Z,14.85
2024-03-26T09:26:27.296Z,14.66
2024-03-26T09:28:55.675Z,14.37
2024-03-26T09:31:24.263Z,14.21
2024-03-26T09:33:53.223Z,14.31
2024-03-26T09:36:22.140Z,14.46
2024-03-26T09:38:52.384Z,14.56
2024-03-26T09:41:28.720Z,14.68
2024-03-26T09:43:57.922Z,14.72
2024-03-26T09:46:27.329Z,14.55
2024-03-26T09:48:58.871Z,14.37
2024-03-26T09:51:28.071Z,14.26
2024-03-26T09:53:58.910Z,14.10
2024-03-26T09:56:28.111Z,14.03
2024-03-26T09:58:56.685Z,13.98
2024-03-26T10:01:26.804Z,13.90
2024-03-26T10:03:55.796Z,13.95
2024-03-26T10:06:25.197Z,14.11
2024-03-26T10:08:54.188Z,14.07
2024-03-26T10:11:22.768Z,13.78
2024-03-26T10:13:52.173Z,13.72
2024-03-26T10:16:20.956Z,13.97
2024-03-26T10:18:49.651Z,14.30
2024-03-26T10:21:18.329Z,14.45
2024-03-26T10:23:47.013Z,14.55
2024-03-26T10:26:16.414Z,14.54
2024-03-26T10:28:50.130Z,14.59
2024-03-26T10:31:20.146Z,14.71
2024-03-26T10:33:48.667Z,14.76
2024-03-26T10:36:18.061Z,14.86
2024-03-26T10:38:57.093Z,14.84
2024-03-26T10:41:34.851Z,14.78
2024-03-26T10:44:04.565Z,14.86
2024-03-26T10:46:34.173Z,14.96
2024-03-26T10:49:04.179Z,14.93
2024-03-26T10:51:33.887Z,14.86
2024-03-26T10:54:03.257Z,14.74
2024-03-26T10:56:33.582Z,14.75
2024-03-26T10:59:03.127Z,14.82
2024-03-26T11:01:32.215Z,14.73
2024-03-26T11:04:01.409Z,14.76
2024-03-26T11:06:30.397Z,14.74
2024-03-26T11:09:02.450Z,14.60
2024-03-26T11:11:36.079Z,14.46
2024-03-26T11:14:05.464Z,14.33
2024-03-26T11:16:41.948Z,14.12
2024-03-26T11:19:22.120Z,13.78
2024-03-26T11:21:52.031Z,13.59
2024-03-26T11:24:26.062Z,13.46
2024-03-26T11:26:57.056Z,13.25
2024-03-26T11:29:26.877Z,13.08
2024-03-26T11:31:57.039Z,13.03
2024-03-26T11:34:26.755Z,12.91
2024-03-26T11:36:56.660Z,12.84
2024-03-26T11:39:26.589Z,12.79
2024-03-26T11:41:55.713Z,12.77
2024-03-26T11:44:24.555Z,12.71
2024-03-26T11:46:53.289Z,12.66
2024-03-26T11:49:23.818Z,12.66
2024-03-26T11:51:52.404Z,12.69
2024-03-26T11:54:21.453Z,12.78
2024-03-26T11:56:50.313Z,12.86
2024-03-26T11:59:21.227Z,12.94
2024-03-26T12:01:49.917Z,13.02
2024-03-26T12:04:18.724Z,13.03
2024-03-26T12:06:47.384Z,12.95
2024-03-26T12:09:17.392Z,12.92
2024-03-26T12:11:46.520Z,12.99
2024-03-26T12:14:15.016Z,13.02
2024-03-26T12:16:43.758Z,13.08
2024-03-26T12:19:12.465Z,13.11
2024-03-26T12:21:41.245Z,13.09
2024-03-26T12:24:13.397Z,13.11
2024-03-26T12:26:42.804Z,13.16
2024-03-26T12:29:12.415Z,13.22
2024-03-26T12:31:41.092Z,13.28
2024-03-26T12:34:10.802Z,13.23
2024-03-26T12:36:39.491Z,13.16
2024-03-26T12:39:12.675Z,13.19
2024-03-26T12:41:41.373Z,13.22
2024-03-26T12:44:14.774Z,13.24
2024-03-26T12:46:43.320Z,13.22
2024-03-26T12:49:12.038Z,13.21
2024-03-26T12:51:41.728Z,13.23
2024-03-26T12:54:10.333Z,13.30
2024-03-26T12:56:39.424Z,13.34
2024-03-26T12:59:08.406Z,13.35
2024-03-26T13:01:36.928Z,13.34
2024-03-26T13:04:05.774Z,13.32
2024-03-26T13:06:34.458Z,13.41
2024-03-26T13:09:03.154Z,13.54
2024-03-26T13:11:33.853Z,13.58
2024-03-26T13:14:03.389Z,13.62
2024-03-26T13:16:33.500Z,13.70
2024-03-26T13:19:01.924Z,13.73
2024-03-26T13:21:30.868Z,13.80
2024-03-26T13:23:59.556Z,13.91
2024-03-26T13:26:28.246Z,14.04
2024-03-26T13:28:57.131Z,14.12
2024-03-26T13:31:26.329Z,14.17
2024-03-26T13:33:54.948Z,14.16
2024-03-26T13:36:24.463Z,14.03
2024-03-26T13:38:53.021Z,14.00
2024-03-26T13:41:21.787Z,14.06
2024-03-26T13:43:55.296Z,14.13
2024-03-26T13:46:24.284Z,14.14
2024-03-26T13:48:53.715Z,14.09
2024-03-26T13:51:22.563Z,14.10
2024-03-26T13:53:51.264Z,14.10
2024-03-26T13:56:20.138Z,14.12
2024-03-26T13:58:48.931Z,14.16
2024-03-26T14:01:17.615Z,14.22
2024-03-26T14:03:47.134Z,14.19
2024-03-26T14:06:15.802Z,14.15
2024-03-26T14:08:44.481Z,14.13
2024-03-26T14:11:13.067Z,14.13
2024-03-26T14:13:41.698Z,14.16
2024-03-26T14:16:10.178Z,14.22
2024-03-26T14:18:38.846Z,14.32
2024-03-26T14:21:07.776Z,14.41
2024-03-26T14:23:36.392Z,14.50
2024-03-26T14:26:06.018Z,14.57
2024-03-26T14:28:35.005Z,14.57
2024-03-26T14:31:03.742Z,14.56
2024-03-26T14:33:32.241Z,14.56
2024-03-26T14:36:00.736Z,14.54
2024-03-26T14:38:29.319Z,14.46
2024-03-26T14:40:57.902Z,14.44
2024-03-26T14:43:26.702Z,14.47
2024-03-26T14:45:55.381Z,14.51
2024-03-26T14:48:24.207Z,14.56
2024-03-26T14:50:53.616Z,14.60
2024-03-26T14:53:22.812Z,14.58
2024-03-26T14:55:51.338Z,14.54
2024-03-26T14:58:19.886Z,14.53
2024-03-26T15:00:49.639Z,14.55
2024-03-26T15:03:19.463Z,14.57
2024-03-26T15:05:51.872Z,14.57
2024-03-26T15:08:21.635Z,14.55
2024-03-26T15:10:50.663Z,14.51
2024-03-26T15:13:19.135Z,14.47
2024-03-26T15:15:48.021Z,14.46
2024-03-26T15:18:17.272Z,14.46
2024-03-26T15:20:45.843Z,14.46
2024-03-26T15:23:14.460Z,14.41
2024-03-26T15:25:43.149Z,14.41
2024-03-26T15:28:34.874Z,14.42
2024-03-26T15:31:22.371Z,14.39
2024-03-26T15:33:50.823Z,14.36
2024-03-26T15:36:19.269Z,14.33
2024-03-26T15:38:47.856Z,14.33
2024-03-26T15:41:16.363Z,14.33
2024-03-26T15:43:44.851Z,14.31
2024-03-26T15:46:13.316Z,14.28
2024-03-26T15:48:41.687Z,14.26
2024-03-26T15:51:11.645Z,14.25
2024-03-26T15:53:40.312Z,14.20
2024-03-26T15:56:09.086Z,14.19
2024-03-26T15:58:38.895Z,14.18
2024-03-26T16:01:09.336Z,14.18
2024-03-26T16:03:38.063Z,14.15
2024-03-26T16:06:07.486Z,14.13
2024-03-26T16:08:36.565Z,14.10
2024-03-26T16:11:13.075Z,14.06
2024-03-26T16:13:42.611Z,14.00
2024-03-26T16:16:11.330Z,13.92
2024-03-26T16:18:40.324Z,13.86
2024-03-26T16:21:09.525Z,13.79
2024-03-26T16:23:38.084Z,13.71
2024-03-26T16:26:06.520Z,13.65
2024-03-26T16:28:38.295Z,13.61
2024-03-26T16:31:08.789Z,13.55
2024-03-26T16:33:37.302Z,13.48
2024-03-26T16:36:11.156Z,13.41
2024-03-26T16:38:42.641Z,13.34
2024-03-26T16:41:20.340Z,13.26
2024-03-26T16:43:59.480Z,13.19
2024-03-26T16:46:29.848Z,13.12
2024-03-26T16:48:58.953Z,13.04
2024-03-26T16:51:27.867Z,12.96
2024-03-26T16:53:56.386Z,12.90
2024-03-26T16:56:26.021Z,12.85
2024-03-26T16:58:54.538Z,12.80
2024-03-26T17:01:23.231Z,12.74
2024-03-26T17:03:51.715Z,12.69
2024-03-26T17:06:20.312Z,12.64
2024-03-26T17:08:49.638Z,12.58
2024-03-26T17:11:18.929Z,12.51
2024-03-26T17:13:48.666Z,12.44
2024-03-26T17:16:17.456Z,12.40
2024-03-26T17:18:46.010Z,12.35
2024-03-26T17:21:14.596Z,12.31
2024-03-26T17:23:43.124Z,12.25
2024-03-26T17:26:11.701Z,12.21
2024-03-26T17:28:40.356Z,12.18
2024-03-26T17:31:09.760Z,12.14
2024-03-26T17:33:38.324Z,12.09
2024-03-26T17:36:07.070Z,12.05
2024-03-26T17:38:35.631Z,12.00
2024-03-26T17:41:04.314Z,11.96
2024-03-26T17:43:32.777Z,11.92
2024-03-26T17:46:01.306Z,11.89
2024-03-26T17:48:31.024Z,11.87
2024-03-26T17:50:59.550Z,11.85
2024-03-26T17:53:30.403Z,11.83
2024-03-26T17:55:58.952Z,11.82
2024-03-26T17:58:30.167Z,11.80
2024-03-26T18:01:07.254Z,11.77
2024-03-26T18:03:36.593Z,11.74
2024-03-26T18:06:05.609Z,11.71
2024-03-26T18:08:34.377Z,11.68
2024-03-26T18:11:06.951Z,11.64
2024-03-26T18:13:35.776Z,11.60
2024-03-26T18:16:05.159Z,11.57
2024-03-26T18:18:33.759Z,11.55
2024-03-26T18:21:07.437Z,11.52
2024-03-26T18:23:36.074Z,11.49
2024-03-26T18:26:06.826Z,11.46
2024-03-26T18:28:36.467Z,11.41
2024-03-26T18:31:09.047Z,11.38
2024-03-26T18:33:38.486Z,11.36
2024-03-26T18:36:07.120Z,11.35
2024-03-26T18:38:35.762Z,11.32
2024-03-26T18:41:09.349Z,11.30
2024-03-26T18:43:39.520Z,11.28
2024-03-26T18:46:14.405Z,11.26
2024-03-26T18:48:44.383Z,11.23
2024-03-26T18:51:13.669Z,11.20
2024-03-26T18:53:42.454Z,11.17
2024-03-26T18:56:12.889Z,11.16
2024-03-26T18:58:42.208Z,11.14
2024-03-26T19:01:18.389Z,11.11
2024-03-26T19:03:48.256Z,11.08
2024-03-26T19:06:18.101Z,11.05
2024-03-26T19:08:47.162Z,11.04
2024-03-26T19:11:15.799Z,10.99
2024-03-26T19:13:44.787Z,10.98
2024-03-26T19:16:13.930Z,10.97
2024-03-26T19:18:42.614Z,10.95
2024-03-26T19:21:11.163Z,10.94
2024-03-26T19:23:39.696Z,10.92
2024-03-26T19:26:09.662Z,10.89
2024-03-26T19:28:39.038Z,10.88
2024-03-26T19:31:11.209Z,10.88
2024-03-26T19:33:41.186Z,10.86
2024-03-26T19:36:11.193Z,10.84
2024-03-26T19:38:39.774Z,10.84
2024-03-26T19:41:09.394Z,10.83
2024-03-26T19:43:38.058Z,10.82
2024-03-26T19:46:11.011Z,10.80
2024-03-26T19:48:40.264Z,10.78
2024-03-26T19:51:09.651Z,10.74
2024-03-26T19:53:39.585Z,10.71
2024-03-26T19:56:12.446Z,10.67
2024-03-26T19:58:43.438Z,10.65
2024-03-26T20:01:12.286Z,10.61
2024-03-26T20:03:40.902Z,10.59
2024-03-26T20:06:13.277Z,10.56
2024-03-26T20:08:45.102Z,10.54
2024-03-26T20:11:14.760Z,10.52
2024-03-26T20:13:43.384Z,10.51
2024-03-26T20:16:14.931Z,10.49
2024-03-26T20:18:44.315Z,10.46
2024-03-26T20:21:12.808Z,10.43
2024-03-26T20:23:41.983Z,10.40
2024-03-26T20:26:10.490Z,10.38
2024-03-26T20:28:38.981Z,10.34
2024-03-26T20:31:12.444Z,10.33
2024-03-26T20:33:42.690Z,10.30
2024-03-26T20:36:16.933Z,10.28
2024-03-26T20:38:45.424Z,10.25
2024-03-26T20:41:14.465Z,10.24
2024-03-26T20:43:43.062Z,10.23
2024-03-26T20:46:11.750Z,10.20
2024-03-26T20:48:40.433Z,10.17
2024-03-26T20:51:12.842Z,10.15
2024-03-26T20:53:41.328Z,10.13
2024-03-26T20:56:10.078Z,10.10
2024-03-26T20:58:38.722Z,10.07
2024-03-26T21:01:14.622Z,10.03
2024-03-26T21:03:43.628Z,9.96
2024-03-26T21:06:12.917Z,9.92
2024-03-26T21:08:41.696Z,9.89
2024-03-26T21:11:11.965Z,9.86
2024-03-26T21:13:41.165Z,9.82
2024-03-26T21:16:12.354Z,9.75
2024-03-26T21:18:48.988Z,9.72
2024-03-26T21:21:21.408Z,9.70
2024-03-26T21:23:51.827Z,9.67
2024-03-26T21:26:20.508Z,9.63
2024-03-26T21:28:49.088Z,9.61
2024-03-26T21:31:18.188Z,9.58
2024-03-26T21:33:48.446Z,9.55
2024-03-26T21:36:16.943Z,9.50
2024-03-26T21:38:45.570Z,9.46
2024-03-26T21:41:16.001Z,9.42
2024-03-26T21:43:44.684Z,9.36
2024-03-26T21:46:13.368Z,9.32
2024-03-26T21:48:42.461Z,9.29
2024-03-26T21:51:10.939Z,9.26
2024-03-26T21:53:41.468Z,9.23
2024-03-26T21:56:11.690Z,9.22
2024-03-26T21:58:41.004Z,9.20
2024-03-26T22:01:14.549Z,9.15
2024-03-26T22:03:43.667Z,9.12
2024-03-26T22:06:12.905Z,9.11
2024-03-26T22:08:42.245Z,9.09
2024-03-26T22:11:13.679Z,9.05
2024-03-26T22:13:42.331Z,9.01
2024-03-26T22:16:11.104Z,8.98
2024-03-26T22:18:39.910Z,8.95
2024-03-26T22:21:08.500Z,8.91
2024-03-26T22:23:37.055Z,8.89
2024-03-26T22:26:08.875Z,8.85
2024-03-26T22:28:37.402Z,8.82
2024-03-26T22:31:06.843Z,8.79
2024-03-26T22:33:36.855Z,8.77
2024-03-26T22:36:09.544Z,8.75
2024-03-26T22:38:38.370Z,8.71
2024-03-26T22:41:07.222Z,8.68
2024-03-26T22:43:38.838Z,8.66
2024-03-26T22:46:08.680Z,8.63
2024-03-26T22:48:41.558Z,8.59
2024-03-26T22:51:10.451Z,8.57
2024-03-26T22:53:39.107Z,8.54
2024-03-26T22:56:07.892Z,8.53
2024-03-26T22:58:36.578Z,8.51
2024-03-26T23:01:08.232Z,8.51
2024-03-26T23:03:36.986Z,8.50
2024-03-26T23:06:05.715Z,8.48
2024-03-26T23:08:34.103Z,8.45
2024-03-26T23:11:03.473Z,8.44
2024-03-26T23:13:31.795Z,8.42
2024-03-26T23:16:03.237Z,8.41
2024-03-26T23:18:32.707Z,8.40
2024-03-26T23:21:01.169Z,8.38
2024-03-26T23:23:29.688Z,8.37
2024-03-26T23:25:58.390Z,8.36
2024-03-26T23:28:27.039Z,8.35
2024-03-26T23:30:55.620Z,8.35
2024-03-26T23:33:24.460Z,8.34
2024-03-26T23:35:53.118Z,8.33
2024-03-26T23:38:21.717Z,8.31
2024-03-26T23:40:50.426Z,8.30
2024-03-26T23:43:19.048Z,8.26
2024-03-26T23:45:47.685Z,8.22
2024-03-26T23:48:16.208Z,8.18
2024-03-26T23:50:44.997Z,8.15
2024-03-26T23:53:13.683Z,8.13
2024-03-26T23:55:45.135Z,8.12
2024-03-26T23:58:13.655Z,8.12
